Aérodrome :
LOGIN :

S'inscrire | Disclaimer

   EN    FR    IT 

 










Légende :    VFR   VFR Marginal   IFR   IFR Intensif   IFR Très Intensif
Visi : 
Plafond : 
>= 8 km
>= 3000ft
5 à 8 km
1000 à 3000 ft
1500m à 5 km
500 à 1000 ft
800 à 1500m
200 à 500 ft
< 800m
< 200 ft
Symboles :   Orages  Brouillard  Fortes neiges  Fortes précipitations  Vent > 20 kt
SIGMETs :   Divers  Orages  Givrage  Turbulence  Onde Orograph.  Cendres Volcan.






- Altitude de l'aérodrome : 386 ft
- Code IATA : QOE


ETNN - Nörvenich Airforce Base

DERNIER METAR :
  • 010120Z 21008KT 9999 -RA OVC012 05/04 Q1013 GRN

METARs EXPIRÉS :
  • 010020Z 23013KT 9999 OVC013 06/04 Q1013 GRN
  • 302320Z 20006KT 9000 -RA OVC013 05/04 Q1014 GRN

TAF TAF ETNN
Valide du 01 à 00h jusqu'au 01 à 09h UTC


302300Z 0100/0109 19010KT 6000 -RA BKN012
TEMPO 0100/0104 22015KT 3000 RADZ BKN006
BECMG 0103/0104 26008KT 4000 -RADZ BKN006
TEMPO 0104/0109 28006KT 2000 SHRA BKN004 BKN015TCU BY ETGL



MET'MAP, la Météo Aéronautique d'un coup d'oeil ! - Copyright ORBIFLY Décembre 2007 - Disclaimer

ORBIFLY MET'MAP TEAM :

Programmation & Développement : Alexandra Zaïnal
Sur une idée originale de : Baudouin d'Aumeries
Assistance à la programmation : Marc-Olivier Méhu
Soutien technique & logistique : Manuel Goepfert

Contact : metmap@orbifly.com




SOURCES & CREDITS :

   NOAA